sensor_id;sensor_type;location;lat;lon;timestamp;P1;durP1;ratioP1;P2;durP2;ratioP2
23222;SDS011;11780;13.904;100.620;2023-03-13T00:02:23;44.90;;;37.28;;
23222;SDS011;11780;13.904;100.620;2023-03-13T00:04:53;40.33;;;33.55;;
23222;SDS011;11780;13.904;100.620;2023-03-13T00:07:23;42.95;;;36.85;;
23222;SDS011;11780;13.904;100.620;2023-03-13T00:09:53;44.22;;;38.22;;
23222;SDS011;11780;13.904;100.620;2023-03-13T00:12:23;42.72;;;37.13;;
23222;SDS011;11780;13.904;100.620;2023-03-13T00:14:53;41.08;;;36.75;;
23222;SDS011;11780;13.904;100.620;2023-03-13T00:17:23;40.67;;;34.58;;
23222;SDS011;11780;13.904;100.620;2023-03-13T00:19:53;41.65;;;34.95;;
23222;SDS011;11780;13.904;100.620;2023-03-13T00:22:24;41.60;;;37.13;;
23222;SDS011;11780;13.904;100.620;2023-03-13T00:24:53;38.97;;;33.83;;
23222;SDS011;11780;13.904;100.620;2023-03-13T00:27:23;39.78;;;33.88;;
23222;SDS011;11780;13.904;100.620;2023-03-13T00:29:53;39.85;;;34.88;;
23222;SDS011;11780;13.904;100.620;2023-03-13T00:32:23;40.70;;;35.22;;
23222;SDS011;11780;13.904;100.620;2023-03-13T00:34:53;43.30;;;36.40;;
23222;SDS011;11780;13.904;100.620;2023-03-13T00:37:25;42.28;;;35.63;;
23222;SDS011;11780;13.904;100.620;2023-03-13T00:39:55;42.97;;;36.00;;
23222;SDS011;11780;13.904;100.620;2023-03-13T00:42:25;45.15;;;36.20;;
23222;SDS011;11780;13.904;100.620;2023-03-13T00:44:57;47.53;;;38.20;;
23222;SDS011;11780;13.904;100.620;2023-03-13T00:47:27;42.40;;;35.67;;
23222;SDS011;11780;13.904;100.620;2023-03-13T00:49:57;41.58;;;35.55;;
23222;SDS011;11780;13.904;100.620;2023-03-13T00:52:27;48.13;;;38.33;;
23222;SDS011;11780;13.904;100.620;2023-03-13T00:55:15;44.75;;;39.97;;
23222;SDS011;11780;13.904;100.620;2023-03-13T00:57:45;50.13;;;40.50;;
23222;SDS011;11780;13.904;100.620;2023-03-13T01:00:16;47.20;;;39.08;;
23222;SDS011;11780;13.904;100.620;2023-03-13T01:02:46;49.13;;;40.58;;
23222;SDS011;11780;13.904;100.620;2023-03-13T01:05:17;44.67;;;39.95;;
23222;SDS011;11780;13.904;100.620;2023-03-13T01:07:46;44.47;;;38.60;;
23222;SDS011;11780;13.904;100.620;2023-03-13T01:10:16;46.85;;;40.53;;
23222;SDS011;11780;13.904;100.620;2023-03-13T01:15:50;45.45;;;40.58;;
23222;SDS011;11780;13.904;100.620;2023-03-13T01:18:20;53.40;;;42.30;;
23222;SDS011;11780;13.904;100.620;2023-03-13T01:20:51;46.03;;;39.57;;
23222;SDS011;11780;13.904;100.620;2023-03-13T01:23:21;47.30;;;42.17;;
23222;SDS011;11780;13.904;100.620;2023-03-13T01:25:53;50.25;;;41.60;;
23222;SDS011;11780;13.904;100.620;2023-03-13T01:28:24;44.47;;;39.63;;
23222;SDS011;11780;13.904;100.620;2023-03-13T01:33:28;43.30;;;37.50;;
23222;SDS011;11780;13.904;100.620;2023-03-13T01:36:02;47.83;;;40.78;;
23222;SDS011;11780;13.904;100.620;2023-03-13T01:38:33;49.95;;;39.17;;
23222;SDS011;11780;13.904;100.620;2023-03-13T01:41:12;48.55;;;38.95;;
23222;SDS011;11780;13.904;100.620;2023-03-13T01:43:42;48.30;;;40.37;;
23222;SDS011;11780;13.904;100.620;2023-03-13T01:46:21;47.55;;;39.28;;
23222;SDS011;11780;13.904;100.620;2023-03-13T01:49:06;45.70;;;39.92;;
23222;SDS011;11780;13.904;100.620;2023-03-13T01:54:49;44.45;;;39.58;;
23222;SDS011;11780;13.904;100.620;2023-03-13T01:57:24;48.47;;;40.28;;
23222;SDS011;11780;13.904;100.620;2023-03-13T02:00:04;48.25;;;41.58;;
23222;SDS011;11780;13.904;100.620;2023-03-13T02:02:43;42.50;;;37.97;;
23222;SDS011;11780;13.904;100.620;2023-03-13T02:05:36;47.45;;;38.75;;
23222;SDS011;11780;13.904;100.620;2023-03-13T02:08:31;48.33;;;39.70;;
23222;SDS011;11780;13.904;100.620;2023-03-13T02:14:38;47.60;;;38.50;;
23222;SDS011;11780;13.904;100.620;2023-03-13T02:17:13;42.47;;;37.88;;
23222;SDS011;11780;13.904;100.620;2023-03-13T02:19:47;51.20;;;39.50;;
23222;SDS011;11780;13.904;100.620;2023-03-13T02:22:29;41.05;;;36.55;;
23222;SDS011;11780;13.904;100.620;2023-03-13T02:28:06;46.45;;;39.25;;
23222;SDS011;11780;13.904;100.620;2023-03-13T02:31:00;42.92;;;37.90;;
23222;SDS011;11780;13.904;100.620;2023-03-13T02:33:46;48.28;;;39.38;;
23222;SDS011;11780;13.904;100.620;2023-03-13T02:36:18;45.22;;;38.17;;
23222;SDS011;11780;13.904;100.620;2023-03-13T02:41:28;39.25;;;35.03;;
23222;SDS011;11780;13.904;100.620;2023-03-13T02:44:02;40.92;;;36.03;;
23222;SDS011;11780;13.904;100.620;2023-03-13T02:46:47;41.28;;;36.10;;
23222;SDS011;11780;13.904;100.620;2023-03-13T02:49:25;44.65;;;36.58;;
23222;SDS011;11780;13.904;100.620;2023-03-13T02:51:59;40.35;;;35.90;;
23222;SDS011;11780;13.904;100.620;2023-03-13T02:55:01;42.38;;;36.40;;
23222;SDS011;11780;13.904;100.620;2023-03-13T02:57:53;46.70;;;38.13;;
23222;SDS011;11780;13.904;100.620;2023-03-13T03:00:42;44.53;;;35.78;;
23222;SDS011;11780;13.904;100.620;2023-03-13T03:03:12;43.28;;;36.15;;
23222;SDS011;11780;13.904;100.620;2023-03-13T03:05:42;42.65;;;35.95;;
23222;SDS011;11780;13.904;100.620;2023-03-13T03:08:15;42.33;;;36.65;;
23222;SDS011;11780;13.904;100.620;2023-03-13T03:10:45;43.00;;;35.22;;
23222;SDS011;11780;13.904;100.620;2023-03-13T03:13:15;41.03;;;35.65;;
23222;SDS011;11780;13.904;100.620;2023-03-13T03:16:07;42.60;;;35.47;;
23222;SDS011;11780;13.904;100.620;2023-03-13T03:18:39;43.15;;;35.67;;
23222;SDS011;11780;13.904;100.620;2023-03-13T03:21:27;39.80;;;35.58;;
23222;SDS011;11780;13.904;100.620;2023-03-13T03:23:57;38.67;;;34.40;;
23222;SDS011;11780;13.904;100.620;2023-03-13T03:26:43;40.42;;;35.45;;
23222;SDS011;11780;13.904;100.620;2023-03-13T03:29:31;38.08;;;34.08;;
23222;SDS011;11780;13.904;100.620;2023-03-13T03:32:31;39.33;;;35.03;;
23222;SDS011;11780;13.904;100.620;2023-03-13T03:35:20;40.42;;;35.13;;
23222;SDS011;11780;13.904;100.620;2023-03-13T03:38:08;37.85;;;33.88;;
23222;SDS011;11780;13.904;100.620;2023-03-13T03:40:57;41.40;;;35.63;;
23222;SDS011;11780;13.904;100.620;2023-03-13T03:43:43;39.78;;;34.25;;
23222;SDS011;11780;13.904;100.620;2023-03-13T03:46:34;39.10;;;34.05;;
23222;SDS011;11780;13.904;100.620;2023-03-13T03:49:04;38.13;;;34.03;;
23222;SDS011;11780;13.904;100.620;2023-03-13T03:51:34;40.78;;;34.78;;
23222;SDS011;11780;13.904;100.620;2023-03-13T03:54:05;42.97;;;34.47;;
23222;SDS011;11780;13.904;100.620;2023-03-13T03:56:54;38.85;;;34.53;;
23222;SDS011;11780;13.904;100.620;2023-03-13T03:59:25;39.05;;;34.88;;
23222;SDS011;11780;13.904;100.620;2023-03-13T04:02:00;39.90;;;35.30;;
23222;SDS011;11780;13.904;100.620;2023-03-13T04:04:46;40.90;;;35.10;;
23222;SDS011;11780;13.904;100.620;2023-03-13T04:07:20;37.63;;;33.75;;
23222;SDS011;11780;13.904;100.620;2023-03-13T04:09:50;37.47;;;33.47;;
23222;SDS011;11780;13.904;100.620;2023-03-13T04:12:26;39.35;;;35.28;;
23222;SDS011;11780;13.904;100.620;2023-03-13T04:14:57;38.38;;;34.28;;
23222;SDS011;11780;13.904;100.620;2023-03-13T04:17:45;40.97;;;33.92;;
23222;SDS011;11780;13.904;100.620;2023-03-13T04:20:18;38.78;;;34.55;;
23222;SDS011;11780;13.904;100.620;2023-03-13T04:22:48;38.17;;;34.17;;
23222;SDS011;11780;13.904;100.620;2023-03-13T04:25:19;38.55;;;34.42;;
23222;SDS011;11780;13.904;100.620;2023-03-13T04:27:51;40.05;;;34.80;;
23222;SDS011;11780;13.904;100.620;2023-03-13T04:30:39;39.25;;;34.65;;
23222;SDS011;11780;13.904;100.620;2023-03-13T04:33:45;39.72;;;35.47;;
23222;SDS011;11780;13.904;100.620;2023-03-13T04:36:27;39.67;;;33.72;;
23222;SDS011;11780;13.904;100.620;2023-03-13T04:39:25;39.70;;;34.10;;
23222;SDS011;11780;13.904;100.620;2023-03-13T04:42:18;40.38;;;35.00;;
23222;SDS011;11780;13.904;100.620;2023-03-13T04:45:09;38.40;;;34.15;;
23222;SDS011;11780;13.904;100.620;2023-03-13T04:47:47;38.38;;;33.33;;
23222;SDS011;11780;13.904;100.620;2023-03-13T04:50:43;37.25;;;33.30;;
23222;SDS011;11780;13.904;100.620;2023-03-13T04:53:19;41.03;;;34.83;;
23222;SDS011;11780;13.904;100.620;2023-03-13T04:56:05;42.35;;;35.33;;
23222;SDS011;11780;13.904;100.620;2023-03-13T04:58:53;37.63;;;33.13;;
23222;SDS011;11780;13.904;100.620;2023-03-13T05:01:41;43.42;;;34.95;;
23222;SDS011;11780;13.904;100.620;2023-03-13T05:04:23;41.35;;;33.63;;
23222;SDS011;11780;13.904;100.620;2023-03-13T05:07:00;39.47;;;33.63;;
23222;SDS011;11780;13.904;100.620;2023-03-13T05:09:55;36.45;;;32.42;;
23222;SDS011;11780;13.904;100.620;2023-03-13T05:12:31;38.25;;;34.08;;
23222;SDS011;11780;13.904;100.620;2023-03-13T05:15:19;35.15;;;31.42;;
23222;SDS011;11780;13.904;100.620;2023-03-13T05:18:08;38.08;;;33.85;;
23222;SDS011;11780;13.904;100.620;2023-03-13T05:20:44;40.63;;;34.95;;
23222;SDS011;11780;13.904;100.620;2023-03-13T05:23:26;42.22;;;35.75;;
23222;SDS011;11780;13.904;100.620;2023-03-13T05:26:02;38.80;;;34.67;;
23222;SDS011;11780;13.904;100.620;2023-03-13T05:29:03;38.67;;;34.65;;
23222;SDS011;11780;13.904;100.620;2023-03-13T05:32:25;37.15;;;33.25;;
23222;SDS011;11780;13.904;100.620;2023-03-13T05:35:13;41.58;;;35.78;;
23222;SDS011;11780;13.904;100.620;2023-03-13T05:38:04;41.97;;;34.70;;
23222;SDS011;11780;13.904;100.620;2023-03-13T05:41:08;42.83;;;36.55;;
23222;SDS011;11780;13.904;100.620;2023-03-13T05:43:56;46.08;;;37.15;;
23222;SDS011;11780;13.904;100.620;2023-03-13T05:46:45;41.45;;;36.80;;
23222;SDS011;11780;13.904;100.620;2023-03-13T05:49:32;42.03;;;37.38;;
23222;SDS011;11780;13.904;100.620;2023-03-13T05:52:20;40.67;;;36.28;;
23222;SDS011;11780;13.904;100.620;2023-03-13T05:55:03;43.83;;;37.85;;
23222;SDS011;11780;13.904;100.620;2023-03-13T05:58:06;42.35;;;36.47;;
23222;SDS011;11780;13.904;100.620;2023-03-13T06:04:01;41.63;;;36.53;;
23222;SDS011;11780;13.904;100.620;2023-03-13T06:06:47;40.67;;;36.25;;
23222;SDS011;11780;13.904;100.620;2023-03-13T06:09:35;41.40;;;37.00;;
23222;SDS011;11780;13.904;100.620;2023-03-13T06:12:06;41.43;;;35.83;;
23222;SDS011;11780;13.904;100.620;2023-03-13T06:14:55;41.15;;;36.70;;
23222;SDS011;11780;13.904;100.620;2023-03-13T06:17:43;43.17;;;35.58;;
23222;SDS011;11780;13.904;100.620;2023-03-13T06:20:14;43.50;;;36.65;;
23222;SDS011;11780;13.904;100.620;2023-03-13T06:22:44;44.87;;;37.47;;
23222;SDS011;11780;13.904;100.620;2023-03-13T06:25:15;46.00;;;39.07;;
23222;SDS011;11780;13.904;100.620;2023-03-13T06:27:45;44.38;;;38.72;;
23222;SDS011;11780;13.904;100.620;2023-03-13T06:30:15;43.38;;;38.47;;
23222;SDS011;11780;13.904;100.620;2023-03-13T06:33:00;41.90;;;37.53;;
23222;SDS011;11780;13.904;100.620;2023-03-13T06:35:49;48.10;;;40.80;;
23222;SDS011;11780;13.904;100.620;2023-03-13T06:38:41;47.20;;;39.75;;
23222;SDS011;11780;13.904;100.620;2023-03-13T06:41:11;45.72;;;38.97;;
23222;SDS011;11780;13.904;100.620;2023-03-13T06:43:41;42.92;;;38.22;;
23222;SDS011;11780;13.904;100.620;2023-03-13T06:46:15;41.13;;;35.72;;
23222;SDS011;11780;13.904;100.620;2023-03-13T06:49:05;41.80;;;37.30;;
23222;SDS011;11780;13.904;100.620;2023-03-13T06:51:35;46.03;;;38.63;;
23222;SDS011;11780;13.904;100.620;2023-03-13T06:54:05;43.28;;;38.22;;
23222;SDS011;11780;13.904;100.620;2023-03-13T06:56:54;47.65;;;38.47;;
23222;SDS011;11780;13.904;100.620;2023-03-13T06:59:42;46.60;;;38.08;;
23222;SDS011;11780;13.904;100.620;2023-03-13T07:02:31;43.08;;;36.88;;
23222;SDS011;11780;13.904;100.620;2023-03-13T07:05:02;44.17;;;39.38;;
23222;SDS011;11780;13.904;100.620;2023-03-13T07:07:52;46.65;;;38.53;;
23222;SDS011;11780;13.904;100.620;2023-03-13T07:10:22;45.70;;;39.40;;
23222;SDS011;11780;13.904;100.620;2023-03-13T07:12:52;43.28;;;37.63;;
23222;SDS011;11780;13.904;100.620;2023-03-13T07:15:22;45.10;;;40.17;;
23222;SDS011;11780;13.904;100.620;2023-03-13T07:17:52;45.50;;;37.67;;
23222;SDS011;11780;13.904;100.620;2023-03-13T07:20:24;41.17;;;36.60;;
23222;SDS011;11780;13.904;100.620;2023-03-13T07:22:54;44.95;;;39.25;;
23222;SDS011;11780;13.904;100.620;2023-03-13T07:25:25;42.00;;;37.35;;
23222;SDS011;11780;13.904;100.620;2023-03-13T07:27:54;40.55;;;36.25;;
23222;SDS011;11780;13.904;100.620;2023-03-13T07:30:24;45.78;;;40.83;;
23222;SDS011;11780;13.904;100.620;2023-03-13T07:32:57;42.58;;;37.78;;
23222;SDS011;11780;13.904;100.620;2023-03-13T07:35:51;42.83;;;38.08;;
23222;SDS011;11780;13.904;100.620;2023-03-13T07:38:21;42.78;;;38.25;;
23222;SDS011;11780;13.904;100.620;2023-03-13T07:40:53;44.15;;;39.35;;
23222;SDS011;11780;13.904;100.620;2023-03-13T07:43:24;48.22;;;40.60;;
23222;SDS011;11780;13.904;100.620;2023-03-13T07:46:02;46.03;;;39.67;;
23222;SDS011;11780;13.904;100.620;2023-03-13T07:48:34;45.80;;;39.33;;
23222;SDS011;11780;13.904;100.620;2023-03-13T07:51:09;44.53;;;39.53;;
23222;SDS011;11780;13.904;100.620;2023-03-13T07:53:58;43.75;;;38.40;;
23222;SDS011;11780;13.904;100.620;2023-03-13T07:56:28;45.63;;;38.03;;
23222;SDS011;11780;13.904;100.620;2023-03-13T07:58:59;44.83;;;39.78;;
23222;SDS011;11780;13.904;100.620;2023-03-13T08:01:29;45.72;;;38.97;;
23222;SDS011;11780;13.904;100.620;2023-03-13T08:04:00;45.63;;;40.75;;
23222;SDS011;11780;13.904;100.620;2023-03-13T08:06:48;42.78;;;38.28;;
23222;SDS011;11780;13.904;100.620;2023-03-13T08:12:08;42.35;;;37.90;;
23222;SDS011;11780;13.904;100.620;2023-03-13T08:14:38;43.80;;;39.22;;
23222;SDS011;11780;13.904;100.620;2023-03-13T08:17:09;45.03;;;40.15;;
23222;SDS011;11780;13.904;100.620;2023-03-13T08:19:57;45.20;;;39.28;;
23222;SDS011;11780;13.904;100.620;2023-03-13T08:22:27;44.63;;;39.92;;
23222;SDS011;11780;13.904;100.620;2023-03-13T08:24:57;44.83;;;39.22;;
23222;SDS011;11780;13.904;100.620;2023-03-13T08:27:28;44.63;;;39.83;;
23222;SDS011;11780;13.904;100.620;2023-03-13T08:29:58;43.80;;;39.17;;
23222;SDS011;11780;13.904;100.620;2023-03-13T08:32:44;46.85;;;38.53;;
23222;SDS011;11780;13.904;100.620;2023-03-13T08:35:14;45.95;;;38.78;;
23222;SDS011;11780;13.904;100.620;2023-03-13T08:37:46;47.70;;;39.55;;
23222;SDS011;11780;13.904;100.620;2023-03-13T08:40:16;43.33;;;38.70;;
23222;SDS011;11780;13.904;100.620;2023-03-13T08:42:46;42.83;;;38.23;;
23222;SDS011;11780;13.904;100.620;2023-03-13T08:45:16;42.42;;;38.00;;
23222;SDS011;11780;13.904;100.620;2023-03-13T08:47:46;43.03;;;38.33;;
23222;SDS011;11780;13.904;100.620;2023-03-13T08:50:21;44.20;;;39.50;;
23222;SDS011;11780;13.904;100.620;2023-03-13T08:52:52;48.17;;;39.90;;
23222;SDS011;11780;13.904;100.620;2023-03-13T08:55:22;45.73;;;40.83;;
23222;SDS011;11780;13.904;100.620;2023-03-13T08:57:52;46.35;;;41.00;;
23222;SDS011;11780;13.904;100.620;2023-03-13T09:00:22;45.45;;;40.20;;
23222;SDS011;11780;13.904;100.620;2023-03-13T09:02:52;46.97;;;41.35;;
23222;SDS011;11780;13.904;100.620;2023-03-13T09:05:22;46.85;;;41.92;;
23222;SDS011;11780;13.904;100.620;2023-03-13T09:07:52;47.08;;;41.97;;
23222;SDS011;11780;13.904;100.620;2023-03-13T09:10:23;48.93;;;42.53;;
23222;SDS011;11780;13.904;100.620;2023-03-13T09:12:53;49.13;;;42.45;;
23222;SDS011;11780;13.904;100.620;2023-03-13T09:15:24;47.85;;;42.63;;
23222;SDS011;11780;13.904;100.620;2023-03-13T09:17:54;49.53;;;42.08;;
23222;SDS011;11780;13.904;100.620;2023-03-13T09:20:24;50.10;;;42.77;;
23222;SDS011;11780;13.904;100.620;2023-03-13T09:22:54;47.20;;;42.30;;
23222;SDS011;11780;13.904;100.620;2023-03-13T09:25:24;48.65;;;43.10;;
23222;SDS011;11780;13.904;100.620;2023-03-13T09:27:54;51.45;;;42.22;;
23222;SDS011;11780;13.904;100.620;2023-03-13T09:30:24;47.90;;;42.03;;
23222;SDS011;11780;13.904;100.620;2023-03-13T09:32:54;48.53;;;41.65;;
23222;SDS011;11780;13.904;100.620;2023-03-13T09:35:45;46.20;;;41.30;;
23222;SDS011;11780;13.904;100.620;2023-03-13T09:38:24;50.40;;;42.45;;
23222;SDS011;11780;13.904;100.620;2023-03-13T09:40:54;48.22;;;42.97;;
23222;SDS011;11780;13.904;100.620;2023-03-13T09:46:25;46.30;;;41.33;;
23222;SDS011;11780;13.904;100.620;2023-03-13T09:54:47;45.83;;;40.92;;
23222;SDS011;11780;13.904;100.620;2023-03-13T10:00:12;45.75;;;40.97;;
23222;SDS011;11780;13.904;100.620;2023-03-13T10:02:55;47.17;;;42.17;;
23222;SDS011;11780;13.904;100.620;2023-03-13T10:05:37;43.15;;;38.53;;
23222;SDS011;11780;13.904;100.620;2023-03-13T10:08:18;46.67;;;41.67;;
23222;SDS011;11780;13.904;100.620;2023-03-13T10:20:19;45.40;;;40.58;;
23222;SDS011;11780;13.904;100.620;2023-03-13T10:22:58;46.72;;;41.60;;
23222;SDS011;11780;13.904;100.620;2023-03-13T10:25:40;45.72;;;40.75;;
23222;SDS011;11780;13.904;100.620;2023-03-13T10:28:12;45.38;;;40.40;;
23222;SDS011;11780;13.904;100.620;2023-03-13T10:30:52;47.03;;;40.70;;
23222;SDS011;11780;13.904;100.620;2023-03-13T10:33:31;44.60;;;40.03;;
23222;SDS011;11780;13.904;100.620;2023-03-13T10:36:06;46.67;;;40.92;;
23222;SDS011;11780;13.904;100.620;2023-03-13T10:38:51;46.25;;;39.55;;
23222;SDS011;11780;13.904;100.620;2023-03-13T10:44:13;45.75;;;40.75;;
23222;SDS011;11780;13.904;100.620;2023-03-13T10:46:45;45.53;;;40.85;;
23222;SDS011;11780;13.904;100.620;2023-03-13T10:49:17;47.42;;;41.35;;
23222;SDS011;11780;13.904;100.620;2023-03-13T10:51:53;44.05;;;39.35;;
23222;SDS011;11780;13.904;100.620;2023-03-13T10:54:24;44.88;;;40.30;;
23222;SDS011;11780;13.904;100.620;2023-03-13T10:59:50;45.50;;;40.10;;
23222;SDS011;11780;13.904;100.620;2023-03-13T11:04:55;46.22;;;39.70;;
23222;SDS011;11780;13.904;100.620;2023-03-13T11:07:36;42.47;;;37.65;;
23222;SDS011;11780;13.904;100.620;2023-03-13T11:12:46;43.97;;;39.30;;
23222;SDS011;11780;13.904;100.620;2023-03-13T11:17:51;45.75;;;39.90;;
23222;SDS011;11780;13.904;100.620;2023-03-13T11:20:32;45.75;;;39.80;;
23222;SDS011;11780;13.904;100.620;2023-03-13T11:23:10;44.97;;;38.63;;
23222;SDS011;11780;13.904;100.620;2023-03-13T11:26:10;47.53;;;39.35;;
23222;SDS011;11780;13.904;100.620;2023-03-13T11:39:40;46.28;;;40.67;;
23222;SDS011;11780;13.904;100.620;2023-03-13T11:53:30;46.60;;;41.17;;
23222;SDS011;11780;13.904;100.620;2023-03-13T11:56:17;46.75;;;41.70;;
23222;SDS011;11780;13.904;100.620;2023-03-13T12:01:56;46.42;;;41.17;;
23222;SDS011;11780;13.904;100.620;2023-03-13T12:07:19;46.45;;;41.58;;
23222;SDS011;11780;13.904;100.620;2023-03-13T12:10:09;45.70;;;40.10;;
23222;SDS011;11780;13.904;100.620;2023-03-13T12:13:02;51.63;;;42.22;;
23222;SDS011;11780;13.904;100.620;2023-03-13T12:15:43;54.03;;;43.97;;
23222;SDS011;11780;13.904;100.620;2023-03-13T12:18:36;51.72;;;41.15;;
23222;SDS011;11780;13.904;100.620;2023-03-13T12:27:19;56.72;;;46.88;;
23222;SDS011;11780;13.904;100.620;2023-03-13T12:30:04;53.08;;;44.65;;
23222;SDS011;11780;13.904;100.620;2023-03-13T12:32:36;61.03;;;47.13;;
23222;SDS011;11780;13.904;100.620;2023-03-13T12:35:20;55.90;;;45.05;;
23222;SDS011;11780;13.904;100.620;2023-03-13T12:38:20;52.85;;;44.60;;
23222;SDS011;11780;13.904;100.620;2023-03-13T12:41:21;52.40;;;45.30;;
23222;SDS011;11780;13.904;100.620;2023-03-13T12:43:56;57.83;;;46.22;;
23222;SDS011;11780;13.904;100.620;2023-03-13T12:46:36;53.20;;;46.22;;
23222;SDS011;11780;13.904;100.620;2023-03-13T12:55:09;53.70;;;44.65;;
23222;SDS011;11780;13.904;100.620;2023-03-13T13:00:36;59.30;;;48.08;;
23222;SDS011;11780;13.904;100.620;2023-03-13T13:03:15;53.10;;;46.70;;
23222;SDS011;11780;13.904;100.620;2023-03-13T13:09:22;54.42;;;48.28;;
23222;SDS011;11780;13.904;100.620;2023-03-13T13:14:55;57.50;;;46.80;;
23222;SDS011;11780;13.904;100.620;2023-03-13T13:19:43;58.70;;;50.05;;
23222;SDS011;11780;13.904;100.620;2023-03-13T13:32:49;74.57;;;56.28;;
23222;SDS011;11780;13.904;100.620;2023-03-13T13:36:39;86.00;;;54.47;;
23222;SDS011;11780;13.904;100.620;2023-03-13T13:45:00;74.20;;;55.33;;
23222;SDS011;11780;13.904;100.620;2023-03-13T13:47:46;75.63;;;55.83;;
23222;SDS011;11780;13.904;100.620;2023-03-13T13:52:48;73.22;;;56.92;;
23222;SDS011;11780;13.904;100.620;2023-03-13T13:58:16;71.47;;;53.90;;
23222;SDS011;11780;13.904;100.620;2023-03-13T14:00:58;69.43;;;53.58;;
23222;SDS011;11780;13.904;100.620;2023-03-13T14:03:31;72.88;;;53.28;;
23222;SDS011;11780;13.904;100.620;2023-03-13T14:06:03;65.72;;;52.40;;
23222;SDS011;11780;13.904;100.620;2023-03-13T14:08:54;63.55;;;51.75;;
23222;SDS011;11780;13.904;100.620;2023-03-13T14:11:34;68.38;;;51.83;;
23222;SDS011;11780;13.904;100.620;2023-03-13T14:14:13;68.13;;;50.85;;
23222;SDS011;11780;13.904;100.620;2023-03-13T14:16:45;62.45;;;49.85;;
23222;SDS011;11780;13.904;100.620;2023-03-13T14:19:26;60.63;;;49.53;;
23222;SDS011;11780;13.904;100.620;2023-03-13T14:22:07;63.80;;;49.97;;
23222;SDS011;11780;13.904;100.620;2023-03-13T14:24:39;61.50;;;51.22;;
23222;SDS011;11780;13.904;100.620;2023-03-13T14:27:15;63.88;;;46.45;;
23222;SDS011;11780;13.904;100.620;2023-03-13T14:30:00;58.08;;;48.03;;
23222;SDS011;11780;13.904;100.620;2023-03-13T14:32:37;61.00;;;47.33;;
23222;SDS011;11780;13.904;100.620;2023-03-13T14:37:41;53.67;;;45.05;;
23222;SDS011;11780;13.904;100.620;2023-03-13T14:40:32;58.78;;;46.70;;
23222;SDS011;11780;13.904;100.620;2023-03-13T14:43:13;54.92;;;46.38;;
23222;SDS011;11780;13.904;100.620;2023-03-13T14:46:13;57.28;;;45.97;;
23222;SDS011;11780;13.904;100.620;2023-03-13T14:48:49;55.33;;;46.03;;
23222;SDS011;11780;13.904;100.620;2023-03-13T14:51:24;56.20;;;47.55;;
23222;SDS011;11780;13.904;100.620;2023-03-13T14:54:01;53.25;;;47.40;;
23222;SDS011;11780;13.904;100.620;2023-03-13T14:56:36;59.03;;;49.00;;
23222;SDS011;11780;13.904;100.620;2023-03-13T14:59:15;60.22;;;49.60;;
23222;SDS011;11780;13.904;100.620;2023-03-13T15:01:56;55.08;;;47.75;;
23222;SDS011;11780;13.904;100.620;2023-03-13T15:07:21;64.60;;;49.65;;
23222;SDS011;11780;13.904;100.620;2023-03-13T15:09:53;62.47;;;44.47;;
23222;SDS011;11780;13.904;100.620;2023-03-13T15:12:23;59.20;;;45.50;;
23222;SDS011;11780;13.904;100.620;2023-03-13T15:14:54;56.92;;;46.33;;
23222;SDS011;11780;13.904;100.620;2023-03-13T15:19:57;59.38;;;47.47;;
23222;SDS011;11780;13.904;100.620;2023-03-13T15:22:29;57.03;;;46.88;;
23222;SDS011;11780;13.904;100.620;2023-03-13T15:25:01;59.28;;;46.90;;
23222;SDS011;11780;13.904;100.620;2023-03-13T15:27:34;58.20;;;46.28;;
23222;SDS011;11780;13.904;100.620;2023-03-13T15:30:04;57.03;;;45.90;;
23222;SDS011;11780;13.904;100.620;2023-03-13T15:32:38;58.60;;;48.33;;
23222;SDS011;11780;13.904;100.620;2023-03-13T15:37:46;60.13;;;50.58;;
23222;SDS011;11780;13.904;100.620;2023-03-13T15:40:16;57.00;;;49.30;;
23222;SDS011;11780;13.904;100.620;2023-03-13T15:42:48;59.22;;;49.30;;
23222;SDS011;11780;13.904;100.620;2023-03-13T15:45:18;60.13;;;49.53;;
23222;SDS011;11780;13.904;100.620;2023-03-13T15:47:49;57.38;;;48.05;;
23222;SDS011;11780;13.904;100.620;2023-03-13T15:50:20;58.07;;;47.87;;
23222;SDS011;11780;13.904;100.620;2023-03-13T15:52:57;57.65;;;46.20;;
23222;SDS011;11780;13.904;100.620;2023-03-13T15:55:29;60.80;;;48.70;;
23222;SDS011;11780;13.904;100.620;2023-03-13T15:57:59;59.63;;;48.03;;
23222;SDS011;11780;13.904;100.620;2023-03-13T16:00:29;60.72;;;49.67;;
23222;SDS011;11780;13.904;100.620;2023-03-13T16:02:59;57.63;;;48.70;;
23222;SDS011;11780;13.904;100.620;2023-03-13T16:05:30;57.08;;;47.80;;
23222;SDS011;11780;13.904;100.620;2023-03-13T16:08:00;56.58;;;47.42;;
23222;SDS011;11780;13.904;100.620;2023-03-13T16:10:30;59.30;;;48.33;;
23222;SDS011;11780;13.904;100.620;2023-03-13T16:13:01;57.42;;;47.90;;
23222;SDS011;11780;13.904;100.620;2023-03-13T16:15:31;56.37;;;48.37;;
23222;SDS011;11780;13.904;100.620;2023-03-13T16:18:04;58.10;;;46.95;;
23222;SDS011;11780;13.904;100.620;2023-03-13T16:20:37;58.10;;;47.35;;
23222;SDS011;11780;13.904;100.620;2023-03-13T16:23:09;56.25;;;44.67;;
23222;SDS011;11780;13.904;100.620;2023-03-13T16:25:39;50.30;;;43.53;;
23222;SDS011;11780;13.904;100.620;2023-03-13T16:28:11;53.65;;;47.20;;
23222;SDS011;11780;13.904;100.620;2023-03-13T16:30:43;55.03;;;45.92;;
23222;SDS011;11780;13.904;100.620;2023-03-13T16:33:15;55.20;;;46.65;;
23222;SDS011;11780;13.904;100.620;2023-03-13T16:35:45;52.45;;;43.20;;
23222;SDS011;11780;13.904;100.620;2023-03-13T16:38:18;53.85;;;45.28;;
23222;SDS011;11780;13.904;100.620;2023-03-13T16:40:49;53.53;;;43.13;;
23222;SDS011;11780;13.904;100.620;2023-03-13T16:45:50;54.33;;;43.58;;
23222;SDS011;11780;13.904;100.620;2023-03-13T16:50:51;51.97;;;44.00;;
23222;SDS011;11780;13.904;100.620;2023-03-13T16:53:21;50.33;;;44.40;;
23222;SDS011;11780;13.904;100.620;2023-03-13T16:55:51;51.10;;;41.28;;
23222;SDS011;11780;13.904;100.620;2023-03-13T16:58:24;48.65;;;41.45;;
23222;SDS011;11780;13.904;100.620;2023-03-13T17:00:54;48.85;;;42.25;;
23222;SDS011;11780;13.904;100.620;2023-03-13T17:03:31;54.55;;;42.47;;
23222;SDS011;11780;13.904;100.620;2023-03-13T17:06:02;48.10;;;40.03;;
23222;SDS011;11780;13.904;100.620;2023-03-13T17:08:32;50.17;;;42.72;;
23222;SDS011;11780;13.904;100.620;2023-03-13T17:11:03;50.42;;;42.15;;
23222;SDS011;11780;13.904;100.620;2023-03-13T17:13:34;50.23;;;42.50;;
23222;SDS011;11780;13.904;100.620;2023-03-13T17:16:09;52.50;;;43.20;;
23222;SDS011;11780;13.904;100.620;2023-03-13T17:18:51;50.30;;;41.45;;
23222;SDS011;11780;13.904;100.620;2023-03-13T17:21:22;52.03;;;42.85;;